Time;durP1;ratioP1;P1;durP2;ratioP2;P2;SDS_P1;SDS_P2;PMS_P1;PMS_P2;Temp;Humidity;BMP_temperature;BMP_pressure;BME280_temperature;BME280_humidity;BME280_pressure;Samples;Min_cycle;Max_cycle;Signal;HPM_P1;HPM_P2
2021/06/05 00:00:26;;;;;;;8.10;3.03;;;19.60;99.90;;;;;;5050113;28;20462;-72
2021/06/05 00:02:52;;;;;;;8.87;3.40;;;19.60;99.90;;;;;;5052756;28;20221;-74
2021/06/05 00:05:23;;;;;;;7.90;3.60;;;19.60;99.90;;;;;;5033551;28;20530;-74
2021/06/05 00:07:54;;;;;;;8.37;3.20;;;19.60;99.90;;;;;;5032968;28;20407;-74
2021/06/05 00:10:40;;;;;;;7.13;3.30;;;19.60;99.90;;;;;;5049516;28;20423;-74
2021/06/05 00:13:09;;;;;;;8.30;3.07;;;19.60;99.90;;;;;;5052301;28;20401;-74
2021/06/05 00:15:40;;;;;;;7.43;2.63;;;19.60;99.90;;;;;;5032684;28;20429;-74
2021/06/05 00:18:06;;;;;;;6.60;2.60;;;19.50;99.90;;;;;;5042027;28;20433;-75
2021/06/05 00:20:34;;;;;;;6.50;2.20;;;19.50;99.90;;;;;;5032888;28;20938;-76
2021/06/05 00:23:03;;;;;;;5.77;1.90;;;19.60;99.90;;;;;;5032623;28;20434;-75
2021/06/05 00:25:30;;;;;;;5.67;1.80;;;19.50;99.90;;;;;;5049584;28;20811;-77
2021/06/05 00:27:56;;;;;;;5.37;1.60;;;19.50;99.90;;;;;;5052652;28;20480;-75
2021/06/05 00:30:23;;;;;;;5.40;1.50;;;19.50;99.90;;;;;;5051962;28;20563;-73
2021/06/05 00:32:49;;;;;;;5.40;1.10;;;19.50;99.90;;;;;;5052808;28;20180;-74
2021/06/05 00:35:15;;;;;;;6.00;1.57;;;19.50;99.90;;;;;;5036379;28;20444;-74
2021/06/05 00:37:41;;;;;;;7.17;2.30;;;19.50;99.90;;;;;;5036288;28;20501;-75
2021/06/05 00:40:09;;;;;;;5.20;1.30;;;19.50;99.90;;;;;;5051396;28;20532;-74
2021/06/05 00:42:35;;;;;;;5.60;1.50;;;19.50;99.90;;;;;;5054581;28;20788;-76
2021/06/05 00:45:06;;;;;;;7.43;1.20;;;19.40;99.90;;;;;;5052269;28;20432;-73
2021/06/05 00:47:31;;;;;;;5.00;1.10;;;19.50;99.90;;;;;;5056052;28;20418;-75
2021/06/05 00:49:57;;;;;;;5.30;1.50;;;19.50;99.90;;;;;;5041083;28;20425;-75
2021/06/05 00:52:24;;;;;;;4.87;0.90;;;19.50;99.90;;;;;;5036044;28;20173;-74
2021/06/05 00:54:50;;;;;;;4.73;1.10;;;19.50;99.90;;;;;;5047194;28;20507;-76
2021/06/05 00:57:16;;;;;;;4.87;1.13;;;19.40;99.90;;;;;;5055655;28;20932;-74
2021/06/05 00:59:41;;;;;;;4.77;1.10;;;19.40;99.90;;;;;;5043291;28;20462;-73
2021/06/05 01:02:07;;;;;;;4.90;1.23;;;19.40;99.90;;;;;;5035929;28;20170;-75
2021/06/05 01:04:34;;;;;;;5.17;1.70;;;19.30;99.90;;;;;;5036816;28;20197;-74
2021/06/05 01:07:08;;;;;;;5.70;1.33;;;19.30;99.90;;;;;;5035599;28;20456;-75
2021/06/05 01:09:45;;;;;;;4.60;1.00;;;19.20;99.90;;;;;;5046010;28;20503;-74
2021/06/05 01:12:19;;;;;;;4.50;1.07;;;19.10;99.90;;;;;;5055761;28;20402;-75
2021/06/05 01:14:56;;;;;;;4.63;1.13;;;19.10;99.90;;;;;;5052023;28;20494;-74
2021/06/05 01:17:27;;;;;;;4.70;1.10;;;19.00;99.90;;;;;;5055676;28;20401;-75
2021/06/05 01:20:00;;;;;;;5.33;1.33;;;18.90;99.90;;;;;;5041861;28;20452;-74
2021/06/05 01:22:44;;;;;;;5.00;1.50;;;18.80;99.90;;;;;;5035785;28;20458;-75
2021/06/05 01:25:33;;;;;;;5.30;1.57;;;18.60;99.90;;;;;;5048343;28;20425;-74
2021/06/05 01:28:12;;;;;;;5.20;1.27;;;18.60;99.90;;;;;;5035548;28;20973;-74
2021/06/05 01:30:45;;;;;;;9.23;1.20;;;18.50;99.90;;;;;;5052929;28;20427;-75
2021/06/05 01:33:13;;;;;;;5.17;1.00;;;18.40;99.90;;;;;;5055211;28;20408;-74
2021/06/05 01:35:40;;;;;;;5.03;1.13;;;18.30;99.90;;;;;;5037382;28;20845;-76
2021/06/05 01:38:08;;;;;;;6.17;1.20;;;18.20;99.90;;;;;;5035257;28;20757;-75
2021/06/05 01:40:37;;;;;;;4.77;0.90;;;18.20;99.90;;;;;;5035781;28;20594;-76
2021/06/05 01:43:05;;;;;;;4.80;1.00;;;18.10;99.90;;;;;;5034355;28;20409;-74
2021/06/05 01:45:40;;;;;;;5.73;1.27;;;18.10;99.90;;;;;;5048356;28;20499;-76
2021/06/05 01:48:09;;;;;;;6.03;1.70;;;18.10;99.90;;;;;;5054723;28;20414;-75
2021/06/05 01:50:42;;;;;;;5.20;1.30;;;18.10;99.90;;;;;;5052901;28;20622;-75
2021/06/05 01:53:16;;;;;;;4.70;1.10;;;18.10;99.90;;;;;;5054229;28;20503;-73
2021/06/05 01:55:55;;;;;;;4.97;1.20;;;18.10;99.90;;;;;;5047934;28;20451;-75
2021/06/05 01:58:28;;;;;;;5.27;1.20;;;18.10;99.90;;;;;;5054133;28;20415;-74
2021/06/05 02:00:56;;;;;;;5.10;1.13;;;18.10;99.90;;;;;;5036722;28;20891;-76
2021/06/05 02:03:23;;;;;;;9.30;1.43;;;18.00;99.90;;;;;;5033762;28;20425;-73
2021/06/05 02:05:48;;;;;;;4.60;0.90;;;18.10;99.90;;;;;;5051951;28;20460;-75
2021/06/05 02:08:18;;;;;;;5.20;1.10;;;18.10;99.90;;;;;;5054371;28;20470;-73
2021/06/05 02:10:44;;;;;;;5.10;1.00;;;18.10;99.90;;;;;;5036056;28;20182;-76
2021/06/05 02:13:19;;;;;;;4.63;0.90;;;18.10;99.90;;;;;;5034111;28;20413;-75
2021/06/05 02:15:57;;;;;;;4.87;1.20;;;18.10;99.90;;;;;;5049759;28;20443;-77
2021/06/05 02:18:26;;;;;;;5.00;1.10;;;18.10;99.90;;;;;;5033949;28;20424;-74
2021/06/05 02:20:58;;;;;;;4.80;0.97;;;18.10;99.90;;;;;;5047616;28;20431;-74
2021/06/05 02:23:31;;;;;;;4.60;1.00;;;18.10;99.90;;;;;;5036260;28;20438;-76
2021/06/05 02:25:59;;;;;;;4.90;0.90;;;18.20;99.90;;;;;;5053904;28;20439;-76
2021/06/05 02:28:25;;;;;;;4.40;0.90;;;18.10;99.90;;;;;;5054114;28;20402;-74
2021/06/05 02:30:51;;;;;;;4.80;0.87;;;18.10;99.90;;;;;;5036722;28;20927;-75
2021/06/05 02:33:18;;;;;;;6.00;1.13;;;18.10;99.90;;;;;;5033865;28;20413;-73
2021/06/05 02:35:45;;;;;;;5.07;1.27;;;18.10;99.90;;;;;;5051323;28;20205;-76
2021/06/05 02:38:15;;;;;;;4.80;1.13;;;18.10;99.90;;;;;;5053605;28;20436;-73
2021/06/05 02:40:41;;;;;;;4.60;0.90;;;18.00;99.90;;;;;;5036746;28;20449;-74
2021/06/05 02:43:15;;;;;;;4.93;0.97;;;18.00;99.90;;;;;;5033676;28;20413;-73
2021/06/05 02:45:47;;;;;;;5.20;1.27;;;17.90;99.90;;;;;;5049623;28;20784;-76
2021/06/05 02:48:13;;;;;;;5.67;1.20;;;17.90;99.90;;;;;;5053815;28;20403;-76
2021/06/05 02:50:50;;;;;;;5.77;1.20;;;17.90;99.90;;;;;;5037394;28;20424;-76
2021/06/05 02:53:16;;;;;;;5.63;1.00;;;17.80;99.90;;;;;;5033603;28;20178;-73
2021/06/05 02:55:43;;;;;;;4.97;1.30;;;17.80;99.90;;;;;;5050446;28;20863;-74
2021/06/05 02:58:10;;;;;;;4.70;1.07;;;17.90;99.90;;;;;;5051125;28;20429;-73
2021/06/05 03:00:41;;;;;;;7.27;1.13;;;17.90;99.90;;;;;;5033482;28;20455;-74
2021/06/05 03:03:09;;;;;;;5.27;0.90;;;18.00;99.90;;;;;;5046546;28;20510;-73
2021/06/05 03:05:36;;;;;;;4.70;0.80;;;18.00;99.90;;;;;;5053263;28;20448;-74
2021/06/05 03:08:03;;;;;;;5.60;1.30;;;18.10;99.90;;;;;;5042591;28;20891;-73
2021/06/05 03:10:31;;;;;;;4.40;0.80;;;18.10;99.90;;;;;;5053305;28;20432;-76
2021/06/05 03:12:59;;;;;;;5.63;1.10;;;18.10;99.90;;;;;;5040663;28;20425;-75
2021/06/05 03:15:25;;;;;;;4.60;0.90;;;18.10;99.90;;;;;;5033198;28;20842;-74
2021/06/05 03:17:51;;;;;;;5.33;1.10;;;18.00;99.90;;;;;;5043834;28;20416;-75
2021/06/05 03:20:22;;;;;;;4.83;1.10;;;18.00;99.90;;;;;;5052264;28;20479;-74
2021/06/05 03:22:48;;;;;;;4.53;0.83;;;17.90;99.90;;;;;;5042672;28;20177;-73
2021/06/05 03:25:14;;;;;;;4.50;0.80;;;17.90;99.90;;;;;;5033369;28;20524;-74
2021/06/05 03:27:40;;;;;;;5.07;0.90;;;17.90;99.90;;;;;;5041660;28;20165;-73
2021/06/05 03:30:07;;;;;;;4.67;1.00;;;17.90;99.90;;;;;;5053229;28;20408;-74
2021/06/05 03:32:33;;;;;;;5.10;1.20;;;17.90;99.90;;;;;;5045125;28;20421;-75
2021/06/05 03:34:59;;;;;;;5.20;1.30;;;17.90;99.90;;;;;;5032953;28;20444;-75
2021/06/05 03:37:25;;;;;;;4.83;0.93;;;17.90;99.90;;;;;;5033081;28;20416;-75
2021/06/05 03:39:50;;;;;;;4.57;0.87;;;17.90;99.90;;;;;;5032358;28;20719;-73
2021/06/05 03:42:16;;;;;;;4.87;1.20;;;18.00;99.90;;;;;;5043908;28;20170;-73
2021/06/05 03:44:42;;;;;;;4.87;1.00;;;18.00;99.90;;;;;;5032767;28;20191;-74
2021/06/05 03:47:09;;;;;;;5.13;1.23;;;18.00;99.90;;;;;;5037962;28;20162;-74
2021/06/05 03:49:34;;;;;;;4.73;0.90;;;18.10;99.90;;;;;;5046046;28;20808;-74
2021/06/05 03:52:00;;;;;;;5.17;0.90;;;18.10;99.90;;;;;;5036004;28;20433;-73
2021/06/05 03:54:26;;;;;;;4.73;1.17;;;18.20;99.90;;;;;;5032787;28;20288;-73
2021/06/05 03:56:52;;;;;;;5.50;1.43;;;18.20;99.90;;;;;;5043468;28;20422;-74
2021/06/05 03:59:18;;;;;;;4.40;1.00;;;18.30;99.90;;;;;;5039215;28;20765;-74
2021/06/05 04:01:44;;;;;;;5.93;1.10;;;18.30;99.90;;;;;;5042386;28;20173;-73
2021/06/05 04:04:10;;;;;;;4.87;1.33;;;18.40;99.90;;;;;;5050740;28;20448;-73
2021/06/05 04:06:36;;;;;;;5.67;1.33;;;18.40;99.90;;;;;;5053018;28;20206;-73
2021/06/05 04:09:03;;;;;;;4.60;1.17;;;18.40;99.90;;;;;;5034737;28;20422;-74
2021/06/05 04:11:32;;;;;;;5.50;1.07;;;18.40;99.90;;;;;;5036940;28;20238;-74
2021/06/05 04:13:59;;;;;;;8.00;1.77;;;18.40;99.90;;;;;;5052783;28;20424;-73
2021/06/05 04:16:25;;;;;;;4.90;1.37;;;18.40;99.90;;;;;;5040273;28;20964;-74
2021/06/05 04:18:51;;;;;;;4.90;1.40;;;18.50;99.90;;;;;;5039371;28;20512;-73
2021/06/05 04:21:19;;;;;;;4.93;1.30;;;18.50;99.90;;;;;;5036234;28;20662;-75
2021/06/05 04:23:46;;;;;;;4.60;1.20;;;18.50;99.90;;;;;;5051237;28;20429;-73
2021/06/05 04:26:12;;;;;;;5.23;1.63;;;18.60;99.90;;;;;;5056812;28;20402;-73
2021/06/05 04:28:39;;;;;;;4.40;1.00;;;18.70;99.90;;;;;;5045666;28;20426;-74
2021/06/05 04:31:06;;;;;;;4.90;1.40;;;18.90;99.90;;;;;;5048517;28;20431;-74
2021/06/05 04:33:33;;;;;;;5.50;1.30;;;19.00;99.90;;;;;;5049057;28;20417;-74
2021/06/05 04:36:01;;;;;;;5.37;1.63;;;18.90;99.90;;;;;;5056243;28;20511;-73
2021/06/05 04:38:27;;;;;;;4.60;1.20;;;18.90;99.90;;;;;;5042739;28;20427;-74
2021/06/05 04:40:54;;;;;;;4.93;1.53;;;18.80;99.90;;;;;;5036173;28;20458;-74
2021/06/05 04:43:21;;;;;;;5.00;1.30;;;18.80;99.90;;;;;;5047561;28;20453;-73
2021/06/05 04:45:47;;;;;;;5.40;1.50;;;18.70;99.90;;;;;;5055727;28;20429;-74
2021/06/05 04:48:14;;;;;;;5.23;1.37;;;18.60;99.90;;;;;;5044123;28;20428;-73
2021/06/05 04:50:41;;;;;;;5.70;1.50;;;18.50;99.90;;;;;;5035923;28;20409;-75
2021/06/05 04:53:07;;;;;;;4.60;1.10;;;18.40;99.90;;;;;;5045248;28;20474;-73
2021/06/05 04:55:34;;;;;;;5.20;1.20;;;18.30;99.90;;;;;;5056108;28;20443;-74
2021/06/05 04:58:00;;;;;;;4.90;1.70;;;18.30;99.90;;;;;;5045796;28;20441;-73
2021/06/05 05:00:32;;;;;;;5.33;1.50;;;18.30;99.90;;;;;;5039677;28;20452;-73
2021/06/05 05:02:58;;;;;;;5.00;1.37;;;18.20;99.90;;;;;;5046632;28;20424;-74
2021/06/05 05:05:24;;;;;;;4.77;1.30;;;18.20;99.90;;;;;;5035712;28;20425;-74
2021/06/05 05:07:51;;;;;;;5.10;1.00;;;18.20;99.90;;;;;;5043055;28;20519;-73
2021/06/05 05:10:22;;;;;;;6.30;1.57;;;18.20;99.90;;;;;;5055745;28;20408;-73
2021/06/05 05:12:48;;;;;;;4.90;1.30;;;18.20;99.90;;;;;;5048239;28;20499;-73
2021/06/05 05:15:15;;;;;;;5.50;1.23;;;18.30;99.90;;;;;;5034170;28;20860;-73
2021/06/05 05:17:40;;;;;;;5.13;1.13;;;18.30;99.90;;;;;;5041148;28;20176;-72
2021/06/05 05:20:09;;;;;;;5.10;1.00;;;18.30;99.90;;;;;;5034985;28;20462;-74
2021/06/05 05:22:36;;;;;;;4.87;1.17;;;18.30;99.90;;;;;;5039564;28;20213;-74
2021/06/05 05:25:02;;;;;;;5.03;1.17;;;18.30;99.90;;;;;;5055084;28;20512;-73
2021/06/05 05:27:28;;;;;;;5.70;1.20;;;18.40;99.90;;;;;;5051017;28;20495;-74
2021/06/05 05:29:53;;;;;;;4.70;0.90;;;18.50;99.90;;;;;;5035466;28;20522;-74
2021/06/05 05:32:19;;;;;;;8.27;1.40;;;18.60;99.90;;;;;;5050664;28;20185;-73
2021/06/05 05:34:45;;;;;;;4.70;1.00;;;18.70;99.90;;;;;;5054545;28;20273;-73
2021/06/05 05:37:11;;;;;;;5.50;1.93;;;18.80;99.90;;;;;;5035526;28;20199;-74
2021/06/05 05:39:38;;;;;;;4.77;1.03;;;18.90;99.90;;;;;;5033879;28;20192;-73
2021/06/05 05:42:05;;;;;;;5.00;1.40;;;18.90;99.90;;;;;;5052650;28;20421;-74
2021/06/05 05:44:30;;;;;;;4.90;1.37;;;19.00;99.90;;;;;;5054519;28;20756;-73
2021/06/05 05:46:56;;;;;;;4.80;1.10;;;19.20;99.90;;;;;;5037490;28;20507;-74
2021/06/05 05:49:21;;;;;;;4.97;1.27;;;19.30;99.90;;;;;;5034918;28;20644;-73
2021/06/05 05:51:49;;;;;;;5.37;1.20;;;19.40;99.90;;;;;;5047331;28;20170;-75
2021/06/05 05:54:15;;;;;;;4.37;1.07;;;19.50;99.90;;;;;;5034608;28;20285;-75
2021/06/05 05:56:41;;;;;;;4.57;1.10;;;19.60;99.90;;;;;;5047885;28;20451;-74
2021/06/05 05:59:07;;;;;;;4.50;0.93;;;19.70;99.90;;;;;;5054595;28;20412;-74
2021/06/05 06:01:33;;;;;;;4.40;1.00;;;19.90;99.90;;;;;;5052512;28;20183;-73
2021/06/05 06:03:59;;;;;;;4.33;0.90;;;20.00;99.90;;;;;;5054271;28;20174;-74
2021/06/05 06:06:27;;;;;;;4.50;0.90;;;20.10;99.90;;;;;;5044353;28;20443;-74
2021/06/05 06:08:53;;;;;;;5.30;1.27;;;20.20;99.90;;;;;;5034694;28;20408;-76
2021/06/05 06:11:19;;;;;;;5.30;1.10;;;20.40;99.90;;;;;;5043850;28;20454;-74
2021/06/05 06:13:45;;;;;;;6.70;2.87;;;20.60;99.90;;;;;;5053953;28;20745;-75
2021/06/05 06:16:14;;;;;;;7.90;3.30;;;20.80;99.90;;;;;;5046504;28;20433;-75
2021/06/05 06:18:41;;;;;;;4.33;1.20;;;21.00;99.90;;;;;;5034188;28;20424;-72
2021/06/05 06:21:09;;;;;;;5.13;1.47;;;21.10;99.90;;;;;;5043080;28;20461;-74
2021/06/05 06:23:37;;;;;;;4.70;1.10;;;21.20;99.90;;;;;;5033802;28;20944;-74
2021/06/05 06:26:08;;;;;;;4.00;0.70;;;21.50;99.90;;;;;;5040177;28;20936;-74
2021/06/05 06:28:35;;;;;;;4.20;0.83;;;21.60;99.90;;;;;;5053998;28;20534;-74
2021/06/05 06:31:01;;;;;;;5.80;1.90;;;21.80;99.90;;;;;;5051293;28;20979;-74
2021/06/05 06:33:28;;;;;;;6.83;2.90;;;22.10;99.90;;;;;;5053370;28;20485;-75
2021/06/05 06:36:04;;;;;;;4.60;1.20;;;22.30;99.90;;;;;;5046910;28;21024;-74
2021/06/05 06:38:34;;;;;;;3.93;0.97;;;22.40;99.90;;;;;;5033686;28;20424;-76
2021/06/05 06:41:03;;;;;;;4.27;0.80;;;22.60;99.90;;;;;;5034875;28;20950;-76
2021/06/05 06:43:30;;;;;;;4.67;1.03;;;22.80;99.90;;;;;;5033367;28;20415;-77
2021/06/05 06:45:56;;;;;;;5.50;1.90;;;22.80;99.90;;;;;;5036766;28;20435;-74
2021/06/05 06:48:23;;;;;;;4.47;1.40;;;22.90;99.90;;;;;;5054003;28;20398;-75
2021/06/05 06:50:49;;;;;;;5.10;1.50;;;23.00;99.90;;;;;;5048647;28;20459;-75
2021/06/05 06:53:17;;;;;;;4.23;0.70;;;23.10;99.90;;;;;;5034429;28;20428;-73
2021/06/05 06:55:43;;;;;;;4.30;1.30;;;23.20;99.90;;;;;;5036533;28;20523;-76
2021/06/05 06:58:09;;;;;;;5.70;1.07;;;23.30;99.90;;;;;;5053790;28;20531;-75
2021/06/05 07:00:40;;;;;;;3.50;0.70;;;23.20;99.90;;;;;;5049941;28;20206;-75
2021/06/05 07:03:06;;;;;;;3.50;0.70;;;23.20;99.90;;;;;;5031949;28;20657;-76
2021/06/05 07:05:32;;;;;;;4.00;1.33;;;23.20;99.90;;;;;;5048334;28;20443;-74
2021/06/05 07:08:09;;;;;;;4.27;1.50;;;23.20;99.90;;;;;;5050766;28;20253;-73
2021/06/05 07:10:35;;;;;;;3.67;1.00;;;23.30;99.90;;;;;;5033418;28;20676;-75
2021/06/05 07:13:01;;;;;;;3.50;0.80;;;23.50;99.90;;;;;;5035068;28;20408;-72
2021/06/05 07:15:26;;;;;;;4.50;1.50;;;23.80;99.90;;;;;;5052335;28;20459;-75
2021/06/05 07:17:52;;;;;;;4.77;1.80;;;24.20;99.90;;;;;;5051183;28;20184;-74
2021/06/05 07:20:18;;;;;;;3.37;0.87;;;24.50;99.90;;;;;;5033088;28;20198;-74
2021/06/05 07:22:43;;;;;;;3.53;0.90;;;24.60;99.90;;;;;;5032450;28;20591;-74
2021/06/05 07:25:10;;;;;;;3.97;1.17;;;24.80;99.90;;;;;;5032993;28;20278;-75
2021/06/05 07:27:35;;;;;;;3.40;0.93;;;25.10;99.90;;;;;;5033452;28;20657;-73
2021/06/05 07:30:01;;;;;;;3.50;0.93;;;25.60;99.90;;;;;;5050843;28;20440;-74
2021/06/05 07:32:27;;;;;;;4.20;1.47;;;26.20;99.90;;;;;;5051601;28;20192;-75
2021/06/05 07:34:52;;;;;;;4.00;1.30;;;26.80;99.00;;;;;;5051782;28;20250;-73
2021/06/05 07:37:20;;;;;;;3.70;1.13;;;27.20;98.30;;;;;;5053201;28;20275;-75
2021/06/05 07:39:46;;;;;;;3.70;0.93;;;27.50;95.10;;;;;;5031607;28;20214;-73
2021/06/05 07:42:13;;;;;;;3.80;1.50;;;27.50;94.80;;;;;;5035535;28;20479;-75
2021/06/05 07:44:39;;;;;;;6.27;3.20;;;27.50;95.80;;;;;;5040226;28;20460;-71
2021/06/05 07:47:05;;;;;;;5.20;1.80;;;27.90;95.90;;;;;;5037133;28;20372;-71
2021/06/05 07:49:34;;;;;;;3.47;1.00;;;28.60;95.50;;;;;;5037905;28;20204;-72
2021/06/05 07:52:02;;;;;;;3.50;1.00;;;28.50;93.20;;;;;;5037215;28;20455;-73
2021/06/05 07:54:27;;;;;;;3.93;1.13;;;28.10;94.40;;;;;;5047859;28;20450;-70
2021/06/05 07:56:53;;;;;;;3.77;1.10;;;27.70;94.60;;;;;;5056345;28;20906;-72
2021/06/05 07:59:22;;;;;;;8.80;5.37;;;27.40;95.30;;;;;;5046772;28;20193;-71
2021/06/05 08:01:48;;;;;;;7.10;3.30;;;27.20;95.20;;;;;;5035363;28;20641;-66
2021/06/05 08:04:14;;;;;;;4.87;1.77;;;26.80;95.40;;;;;;5044196;28;20439;-69
2021/06/05 08:06:40;;;;;;;3.90;1.40;;;26.60;96.40;;;;;;5056644;28;20404;-69
2021/06/05 08:09:07;;;;;;;3.67;1.23;;;26.40;96.80;;;;;;5048835;28;20790;-69
2021/06/05 08:11:33;;;;;;;4.20;1.87;;;26.20;96.30;;;;;;5037977;28;20753;-68
2021/06/05 08:13:59;;;;;;;5.97;1.20;;;26.00;97.00;;;;;;5055423;28;20424;-71
2021/06/05 08:16:25;;;;;;;3.80;1.50;;;26.00;97.20;;;;;;5056508;28;20801;-69
2021/06/05 08:18:50;;;;;;;3.40;1.03;;;26.00;97.30;;;;;;5051912;28;20238;-69
2021/06/05 08:21:17;;;;;;;3.30;1.20;;;26.00;97.20;;;;;;5036434;28;20611;-69
2021/06/05 08:23:43;;;;;;;4.17;1.70;;;25.90;97.40;;;;;;5038020;28;20173;-69
2021/06/05 08:26:11;;;;;;;5.33;2.10;;;25.60;97.70;;;;;;5055879;28;20404;-69
2021/06/05 08:28:38;;;;;;;4.43;1.90;;;25.10;98.30;;;;;;5037740;28;20416;-70
2021/06/05 08:31:07;;;;;;;5.00;2.03;;;24.90;99.60;;;;;;5056511;28;20408;-74
2021/06/05 08:33:33;;;;;;;4.33;1.80;;;24.60;99.70;;;;;;5050199;28;20915;-69
2021/06/05 08:35:59;;;;;;;4.00;1.70;;;24.20;99.90;;;;;;5050481;28;20443;-68
2021/06/05 08:38:29;;;;;;;4.13;1.50;;;23.80;99.90;;;;;;5047407;28;20183;-67
2021/06/05 08:41:23;;;;;;;3.90;1.47;;;23.50;99.90;;;;;;5056226;28;20295;-67
2021/06/05 08:43:55;;;;;;;4.03;1.53;;;23.30;99.90;;;;;;5049167;28;20428;-67
2021/06/05 08:46:28;;;;;;;6.07;1.70;;;23.10;99.90;;;;;;5035891;28;20438;-67
2021/06/05 08:48:57;;;;;;;3.90;1.30;;;23.00;99.90;;;;;;5042024;28;20443;-67
2021/06/05 08:51:43;;;;;;;5.00;1.47;;;22.90;99.90;;;;;;5054938;28;20430;-67
2021/06/05 08:54:35;;;;;;;4.33;1.70;;;22.80;99.90;;;;;;5047131;28;20541;-67
2021/06/05 08:57:23;;;;;;;4.20;1.43;;;22.70;99.90;;;;;;5034546;28;20946;-66
2021/06/05 08:59:50;;;;;;;4.60;1.83;;;22.60;99.90;;;;;;5037581;28;20465;-66
2021/06/05 09:02:16;;;;;;;4.40;1.50;;;22.50;99.90;;;;;;5035800;28;20752;-67
2021/06/05 09:04:42;;;;;;;4.00;1.30;;;22.40;99.90;;;;;;5034952;28;20447;-69
2021/06/05 09:07:14;;;;;;;3.73;1.40;;;22.30;99.90;;;;;;5035700;28;20776;-68
2021/06/05 09:09:42;;;;;;;4.63;1.47;;;22.30;99.90;;;;;;5046320;28;20185;-68
2021/06/05 09:12:10;;;;;;;4.17;1.50;;;22.30;99.90;;;;;;5055602;28;20417;-68
2021/06/05 09:14:36;;;;;;;4.00;1.37;;;22.20;99.90;;;;;;5048161;28;20480;-68
2021/06/05 09:17:18;;;;;;;5.03;1.20;;;22.10;99.90;;;;;;5055549;28;20423;-68
2021/06/05 09:20:11;;;;;;;4.80;1.93;;;22.00;99.90;;;;;;5043274;28;20546;-67
2021/06/05 09:22:43;;;;;;;4.57;1.57;;;22.10;99.90;;;;;;5035452;28;20413;-68
2021/06/05 09:25:33;;;;;;;5.00;1.23;;;22.10;99.90;;;;;;5036188;28;20539;-70
2021/06/05 09:28:23;;;;;;;3.73;1.00;;;22.20;99.90;;;;;;5035667;28;20819;-69
2021/06/05 09:30:53;;;;;;;4.43;1.50;;;22.30;99.90;;;;;;5035645;28;20843;-68
2021/06/05 09:33:34;;;;;;;3.90;1.37;;;22.40;99.90;;;;;;5045402;28;20434;-67
2021/06/05 09:36:25;;;;;;;3.73;1.20;;;22.50;99.90;;;;;;5055033;28;20893;-69
2021/06/05 09:39:07;;;;;;;3.57;1.10;;;22.60;99.90;;;;;;5049320;28;20470;-68
2021/06/05 09:41:35;;;;;;;3.80;1.20;;;22.60;99.90;;;;;;5055101;28;20931;-69
2021/06/05 09:44:23;;;;;;;4.10;1.23;;;22.60;99.90;;;;;;5038673;28;20847;-67
2021/06/05 09:47:04;;;;;;;4.37;1.47;;;22.70;99.90;;;;;;5035002;28;20440;-69
2021/06/05 09:49:34;;;;;;;4.00;1.37;;;22.70;99.90;;;;;;5053870;28;20858;-68
2021/06/05 09:52:12;;;;;;;3.97;1.20;;;22.80;99.90;;;;;;5053564;28;20427;-67
2021/06/05 09:54:46;;;;;;;3.67;1.13;;;22.80;99.90;;;;;;5034070;28;20494;-67
2021/06/05 09:57:26;;;;;;;4.40;1.50;;;22.80;99.90;;;;;;5034576;28;20414;-69
2021/06/05 10:00:00;;;;;;;3.70;1.10;;;22.90;99.90;;;;;;5054703;28;20452;-69
2021/06/05 10:02:26;;;;;;;5.60;1.33;;;23.20;99.90;;;;;;5048182;28;20415;-68
2021/06/05 10:05:24;;;;;;;4.27;1.40;;;23.30;99.90;;;;;;5040146;28;20444;-68
2021/06/05 10:07:51;;;;;;;3.93;1.10;;;23.60;99.90;;;;;;5044311;28;20792;-68
2021/06/05 10:10:38;;;;;;;4.03;1.20;;;23.70;99.90;;;;;;5034722;28;20409;-67
2021/06/05 10:13:28;;;;;;;3.67;1.27;;;23.70;99.90;;;;;;5044773;28;20419;-68
2021/06/05 10:16:04;;;;;;;4.33;1.30;;;23.80;99.90;;;;;;5053545;28;20528;-67
2021/06/05 10:18:36;;;;;;;3.80;1.20;;;23.80;99.90;;;;;;5038915;28;20424;-67
2021/06/05 10:21:15;;;;;;;8.50;3.90;;;23.70;99.90;;;;;;5034172;28;20463;-67
2021/06/05 10:23:48;;;;;;;4.83;1.80;;;23.70;99.90;;;;;;5048088;28;20420;-67
2021/06/05 10:26:24;;;;;;;4.00;1.20;;;23.50;99.90;;;;;;5053600;28;20830;-67
2021/06/05 10:28:58;;;;;;;4.27;1.53;;;23.30;99.90;;;;;;5050468;28;20449;-67
2021/06/05 10:31:25;;;;;;;3.40;0.97;;;23.10;99.90;;;;;;5054168;28;20763;-67
2021/06/05 10:33:56;;;;;;;4.30;1.37;;;22.80;99.90;;;;;;5037704;28;20544;-67
2021/06/05 10:36:34;;;;;;;3.60;0.90;;;22.70;99.90;;;;;;5033945;28;20437;-68
2021/06/05 10:39:01;;;;;;;4.10;0.87;;;22.70;99.90;;;;;;5049832;28;20502;-73
2021/06/05 10:41:31;;;;;;;4.50;1.53;;;22.60;99.90;;;;;;5053762;28;20457;-72
2021/06/05 10:43:57;;;;;;;4.07;1.30;;;22.60;99.90;;;;;;5037135;28;20749;-69
2021/06/05 10:46:49;;;;;;;5.17;0.93;;;22.70;99.90;;;;;;5038993;28;20508;-75
2021/06/05 10:49:33;;;;;;;4.07;1.10;;;22.80;99.90;;;;;;5035538;28;20824;-71
2021/06/05 10:52:17;;;;;;;4.70;1.13;;;22.90;99.90;;;;;;5033865;28;20403;-69
2021/06/05 10:54:56;;;;;;;3.77;0.90;;;22.90;99.90;;;;;;5033259;28;20444;-71
2021/06/05 10:57:24;;;;;;;3.97;1.30;;;22.90;99.90;;;;;;5033745;28;20492;-69
2021/06/05 10:59:56;;;;;;;4.20;1.30;;;23.10;99.90;;;;;;5047919;28;20479;-69
2021/06/05 11:02:44;;;;;;;5.80;1.10;;;23.10;99.90;;;;;;5050621;28;20478;-67
2021/06/05 11:05:16;;;;;;;3.87;1.20;;;23.10;99.90;;;;;;5033252;28;20481;-69
2021/06/05 11:07:43;;;;;;;4.10;1.10;;;23.20;99.90;;;;;;5037628;28;20501;-71
2021/06/05 11:10:10;;;;;;;4.20;1.43;;;23.40;99.90;;;;;;5052576;28;20426;-72
2021/06/05 11:12:35;;;;;;;4.90;1.43;;;23.50;99.90;;;;;;5033325;28;20455;-72
2021/06/05 11:15:02;;;;;;;3.73;1.10;;;23.80;99.90;;;;;;5036848;28;20472;-71
2021/06/05 11:17:40;;;;;;;4.50;1.20;;;23.80;99.90;;;;;;5053349;28;20579;-71
2021/06/05 11:20:06;;;;;;;4.47;1.40;;;24.00;99.90;;;;;;5047843;28;20463;-66
2021/06/05 11:22:55;;;;;;;3.60;1.17;;;24.10;99.90;;;;;;5033403;28;20503;-69
2021/06/05 11:25:20;;;;;;;3.90;1.20;;;24.10;99.90;;;;;;5034566;28;20447;-74
2021/06/05 11:27:49;;;;;;;4.20;1.27;;;24.30;99.90;;;;;;5039539;28;20417;-66
2021/06/05 11:30:21;;;;;;;4.40;1.57;;;24.40;99.90;;;;;;5037438;28;20173;-72
2021/06/05 11:33:09;;;;;;;3.67;1.20;;;24.50;99.90;;;;;;5052759;28;20415;-73
2021/06/05 11:35:58;;;;;;;4.10;1.43;;;24.70;99.90;;;;;;5045640;28;20986;-72
2021/06/05 11:38:23;;;;;;;4.97;1.43;;;25.00;99.90;;;;;;5034009;28;20891;-74
2021/06/05 11:41:30;;;;;;;4.03;1.57;;;25.10;99.90;;;;;;5034993;28;20448;-71
2021/06/05 11:44:18;;;;;;;3.70;1.10;;;25.10;99.90;;;;;;5032228;28;20170;-70
2021/06/05 11:46:47;;;;;;;4.50;1.50;;;25.00;99.90;;;;;;5048392;28;20416;-69
2021/06/05 11:49:40;;;;;;;3.73;1.20;;;25.10;99.90;;;;;;5052523;28;20412;-70
2021/06/05 11:52:33;;;;;;;4.53;1.57;;;25.00;99.90;;;;;;5033362;28;20429;-70
2021/06/05 11:55:16;;;;;;;4.40;1.47;;;24.70;99.90;;;;;;5033314;28;20425;-69
2021/06/05 11:57:53;;;;;;;4.80;1.30;;;24.40;99.90;;;;;;5052635;28;20778;-69
2021/06/05 12:00:26;;;;;;;4.40;1.30;;;24.00;99.90;;;;;;5047558;28;20455;-70
2021/06/05 12:03:08;;;;;;;4.47;1.40;;;23.80;99.90;;;;;;5032579;28;20400;-67
2021/06/05 12:05:40;;;;;;;3.80;1.47;;;23.70;99.90;;;;;;5036954;28;20410;-68
2021/06/05 12:08:25;;;;;;;4.07;1.40;;;23.70;99.90;;;;;;5051671;28;20429;-68
2021/06/05 12:10:53;;;;;;;5.77;1.73;;;23.70;99.90;;;;;;5043748;28;20775;-68
2021/06/05 12:13:38;;;;;;;4.07;1.30;;;23.80;99.90;;;;;;5032308;28;20411;-68
2021/06/05 12:16:13;;;;;;;4.20;1.47;;;24.10;99.90;;;;;;5045986;28;20799;-68
2021/06/05 12:18:38;;;;;;;3.80;1.40;;;24.40;99.90;;;;;;5052537;28;20403;-67
2021/06/05 12:21:30;;;;;;;3.93;1.70;;;24.70;99.90;;;;;;5038682;28;20811;-68
2021/06/05 12:23:56;;;;;;;3.97;1.73;;;24.80;99.90;;;;;;5032218;28;20210;-67
2021/06/05 12:26:26;;;;;;;3.63;1.20;;;24.90;99.90;;;;;;5047729;28;20420;-67
2021/06/05 12:29:08;;;;;;;4.30;1.50;;;25.10;99.90;;;;;;5038248;28;20408;-67
2021/06/05 12:31:41;;;;;;;3.73;1.23;;;25.20;99.90;;;;;;5036286;28;20396;-67
2021/06/05 12:34:32;;;;;;;4.60;2.00;;;25.40;99.90;;;;;;5051824;28;20467;-67
2021/06/05 12:37:01;;;;;;;4.63;1.93;;;25.60;99.90;;;;;;5053778;28;20451;-67
2021/06/05 12:39:27;;;;;;;4.20;1.90;;;25.70;99.90;;;;;;5054266;28;20447;-68
2021/06/05 12:41:54;;;;;;;3.90;1.20;;;25.80;99.90;;;;;;5050006;28;20430;-69
2021/06/05 12:44:35;;;;;;;3.63;1.30;;;25.70;99.90;;;;;;5060255;28;20239;-68
2021/06/05 12:47:10;;;;;;;3.70;1.40;;;25.70;99.90;;;;;;5056685;28;20383;-68
2021/06/05 12:49:37;;;;;;;3.57;1.23;;;25.60;99.90;;;;;;5037667;28;20425;-66
2021/06/05 12:52:06;;;;;;;3.67;0.90;;;25.50;99.90;;;;;;5035581;28;20382;-67
2021/06/05 12:54:35;;;;;;;4.37;1.10;;;25.30;99.50;;;;;;5035588;28;20844;-65
2021/06/05 12:57:25;;;;;;;5.40;1.20;;;25.10;99.30;;;;;;5035606;28;20403;-66
2021/06/05 12:59:52;;;;;;;4.53;1.30;;;24.80;99.90;;;;;;5035493;28;20451;-67
2021/06/05 13:02:26;;;;;;;4.07;1.20;;;24.70;99.90;;;;;;5035791;28;20423;-66
2021/06/05 13:04:52;;;;;;;6.30;2.33;;;24.60;99.90;;;;;;5034002;28;20468;-65